createdAt,value
2023-05-12T00:00:08.193Z,98323.56
2023-05-12T00:01:10.160Z,98322.28
2023-05-12T00:02:12.177Z,98319.09
2023-05-12T00:03:14.869Z,98320.19
2023-05-12T00:04:17.173Z,98320.50
2023-05-12T00:05:19.078Z,98322.38
2023-05-12T00:06:21.899Z,98318.34
2023-05-12T00:07:24.261Z,98320.25
2023-05-12T00:08:26.143Z,98312.75
2023-05-12T00:09:28.135Z,98309.75
2023-05-12T00:10:30.658Z,98314.66
2023-05-12T00:11:32.552Z,98313.06
2023-05-12T00:12:34.640Z,98312.56
2023-05-12T00:13:36.703Z,98307.97
2023-05-12T00:14:38.953Z,98311.75
2023-05-12T00:15:41.428Z,98317.16
2023-05-12T00:16:43.580Z,98303.94
2023-05-12T00:17:45.739Z,98305.34
2023-05-12T00:18:47.665Z,98312.63
2023-05-12T00:19:50.291Z,98308.03
2023-05-12T00:20:54.160Z,98307.25
2023-05-12T00:21:55.983Z,98304.84
2023-05-12T00:22:57.782Z,98305.16
2023-05-12T00:23:59.721Z,98299.75
2023-05-12T00:25:01.805Z,98301.16
2023-05-12T00:26:03.770Z,98304.94
2023-05-12T00:27:07.375Z,98303.84
2023-05-12T00:28:09.397Z,98300.66
2023-05-12T00:29:11.395Z,98307.91
2023-05-12T00:30:13.629Z,98298.22
2023-05-12T00:31:15.885Z,98302.81
2023-05-12T00:32:17.882Z,98294.72
2023-05-12T00:33:19.673Z,98299.31
2023-05-12T00:34:21.849Z,98304.72
2023-05-12T00:35:24.050Z,98298.53
2023-05-12T00:36:26.841Z,98301.22
2023-05-12T00:37:28.789Z,98301.53
2023-05-12T00:38:30.629Z,98301.53
2023-05-12T00:39:32.682Z,98297.22
2023-05-12T00:40:34.660Z,98295.31
2023-05-12T00:41:36.857Z,98299.91
2023-05-12T00:42:39.093Z,98304.53
2023-05-12T00:43:41.060Z,98296.72
2023-05-12T00:44:42.980Z,98292.13
2023-05-12T00:45:44.901Z,98292.13
2023-05-12T00:46:46.841Z,98295.63
2023-05-12T00:47:52.005Z,98292.91
2023-05-12T00:48:54.187Z,98292.63
2023-05-12T00:49:56.097Z,98294.81
2023-05-12T00:50:59.653Z,98294.53
2023-05-12T00:52:03.548Z,98287.53
2023-05-12T00:53:08.075Z,98291.81
2023-05-12T00:54:10.262Z,98288.31
2023-05-12T00:55:12.142Z,98291.31
2023-05-12T00:56:16.864Z,98288.63
2023-05-12T00:57:20.702Z,98294.03
2023-05-12T00:58:23.063Z,98291.03
2023-05-12T00:59:24.888Z,98294.81
2023-05-12T01:00:26.755Z,98293.72
2023-05-12T01:01:30.273Z,98293.72
2023-05-12T01:02:32.481Z,98292.91
2023-05-12T01:03:34.581Z,98296.41
2023-05-12T01:04:38.677Z,98296.13
2023-05-12T01:06:06.048Z,98299.31
2023-05-12T01:07:21.417Z,98299.31
2023-05-12T01:08:24.768Z,98298.31
2023-05-12T01:09:27.051Z,98301.81
2023-05-12T01:10:28.880Z,98301.31
2023-05-12T01:11:30.839Z,98305.63
2023-05-12T01:12:33.619Z,98298.63
2023-05-12T01:13:36.075Z,98298.63
2023-05-12T01:14:39.288Z,98301.84
2023-05-12T01:15:47.712Z,98302.41
2023-05-12T01:16:58.903Z,98294.31
2023-05-12T01:18:04.511Z,98298.13
2023-05-12T01:19:15.023Z,98296.47
2023-05-12T01:20:19.157Z,98295.16
2023-05-12T01:21:21.403Z,98295.66
2023-05-12T01:22:25.115Z,98295.16
2023-05-12T01:23:37.846Z,98300.81
2023-05-12T01:24:50.110Z,98289.47
2023-05-12T01:25:55.376Z,98289.25
2023-05-12T01:26:57.829Z,98288.47
2023-05-12T01:28:02.769Z,98289.25
2023-05-12T01:29:06.165Z,98290.38
2023-05-12T01:30:11.122Z,98289.88
2023-05-12T01:31:14.816Z,98286.38
2023-05-12T01:32:17.293Z,98286.38
2023-05-12T01:33:19.228Z,98283.66
2023-05-12T01:34:21.782Z,98284.78
2023-05-12T01:35:23.589Z,98290.16
2023-05-12T01:36:25.535Z,98289.38
2023-05-12T01:37:27.530Z,98290.16
2023-05-12T01:38:29.508Z,98281.84
2023-05-12T01:39:31.386Z,98286.13
2023-05-12T01:40:33.848Z,98285.34
2023-05-12T01:41:36.070Z,98289.13
2023-05-12T01:42:41.765Z,98289.13
2023-05-12T01:43:43.593Z,98283.75
2023-05-12T01:44:45.566Z,98284.03
2023-05-12T01:45:47.402Z,98289.44
2023-05-12T01:46:49.653Z,98288.34
2023-05-12T01:47:51.974Z,98289.72
2023-05-12T01:48:54.014Z,98295.94
2023-05-12T01:49:55.893Z,98296.22
2023-05-12T01:51:01.252Z,98297.03
2023-05-12T01:52:03.577Z,98295.13
2023-05-12T01:53:05.488Z,98302.44
2023-05-12T01:54:07.409Z,98293.84
2023-05-12T01:55:09.411Z,98301.13
2023-05-12T01:56:11.359Z,98290.91
2023-05-12T01:57:13.376Z,98294.41
2023-05-12T01:58:15.244Z,98299.53
2023-05-12T01:59:17.148Z,98303.59
2023-05-12T02:00:19.521Z,98304.38
2023-05-12T02:01:23.250Z,98295.78
2023-05-12T02:02:25.267Z,98304.19
2023-05-12T02:03:27.496Z,98297.69
2023-05-12T02:04:29.368Z,98303.88
2023-05-12T02:05:31.389Z,98304.97
2023-05-12T02:06:33.595Z,98298.78
2023-05-12T02:07:35.737Z,98291.00
2023-05-12T02:08:37.620Z,98298.78
2023-05-12T02:09:39.549Z,98295.09
2023-05-12T02:10:42.083Z,98291.28
2023-05-12T02:11:43.998Z,98299.38
2023-05-12T02:12:45.871Z,98301.28
2023-05-12T02:13:48.107Z,98295.88
2023-05-12T02:14:50.184Z,98297.00
2023-05-12T02:15:52.078Z,98295.38
2023-05-12T02:16:55.432Z,98295.66
2023-05-12T02:17:58.662Z,98292.16
2023-05-12T02:19:00.632Z,98291.34
2023-05-12T02:20:02.784Z,98293.25
2023-05-12T02:21:04.879Z,98297.56
2023-05-12T02:22:07.525Z,98297.56
2023-05-12T02:23:09.488Z,98297.84
2023-05-12T02:24:12.904Z,98297.34
2023-05-12T02:25:16.119Z,98290.06
2023-05-12T02:26:19.405Z,98297.34
2023-05-12T02:27:21.263Z,98292.75
2023-05-12T02:28:23.790Z,98293.06
2023-05-12T02:29:26.370Z,98290.66
2023-05-12T02:30:28.262Z,98290.66
2023-05-12T02:31:30.354Z,98297.16
2023-05-12T02:32:32.768Z,98289.34
2023-05-12T02:33:34.725Z,98283.97
2023-05-12T02:34:36.557Z,98290.16
2023-05-12T02:35:38.405Z,98291.50
2023-05-12T02:36:40.412Z,98289.63
2023-05-12T02:37:42.288Z,98292.03
2023-05-12T02:38:44.172Z,98286.13
2023-05-12T02:39:45.928Z,98288.81
2023-05-12T02:40:47.934Z,98283.72
2023-05-12T02:41:49.741Z,98288.31
2023-05-12T02:42:51.568Z,98288.63
2023-05-12T02:43:53.749Z,98281.03
2023-05-12T02:44:55.644Z,98288.31
2023-05-12T02:45:57.593Z,98280.53
2023-05-12T02:46:59.474Z,98284.31
2023-05-12T02:48:01.351Z,98277.63
2023-05-12T02:49:04.333Z,98279.22
2023-05-12T02:50:07.188Z,98282.22
2023-05-12T02:51:09.569Z,98287.59
2023-05-12T02:52:11.949Z,98283.81
2023-05-12T02:53:13.833Z,98284.91
2023-05-12T02:54:16.017Z,98285.22
2023-05-12T02:55:18.116Z,98290.59
2023-05-12T02:56:21.150Z,98290.31
2023-05-12T02:57:23.368Z,98281.72
2023-05-12T02:58:25.435Z,98288.16
2023-05-12T02:59:27.499Z,98286.28
2023-05-12T03:00:29.332Z,98283.31
2023-05-12T03:01:31.608Z,98292.50
2023-05-12T03:02:35.370Z,98281.72
2023-05-12T03:03:37.481Z,98287.09
2023-05-12T03:04:39.865Z,98283.88
2023-05-12T03:05:41.698Z,98289.25
2023-05-12T03:06:43.590Z,98282.28
2023-05-12T03:07:48.588Z,98281.19
2023-05-12T03:08:50.554Z,98288.47
2023-05-12T03:09:52.535Z,98290.06
2023-05-12T03:10:54.408Z,98287.66
2023-05-12T03:11:56.262Z,98283.06
2023-05-12T03:12:58.149Z,98286.06
2023-05-12T03:14:00.100Z,98281.47
2023-05-12T03:15:04.683Z,98282.28
2023-05-12T03:16:06.864Z,98281.78
2023-05-12T03:17:08.857Z,98283.38
2023-05-12T03:18:10.946Z,98277.97
2023-05-12T03:19:13.058Z,98283.38
2023-05-12T03:20:15.472Z,98280.97
2023-05-12T03:21:17.419Z,98278.28
2023-05-12T03:22:19.330Z,98280.13
2023-05-12T03:23:21.573Z,98282.28
2023-05-12T03:24:23.656Z,98286.38
2023-05-12T03:25:25.502Z,98280.97
2023-05-12T03:26:27.380Z,98289.31
2023-05-12T03:27:29.635Z,98285.03
2023-05-12T03:28:32.371Z,98283.13
2023-05-12T03:29:34.288Z,98283.13
2023-05-12T03:30:36.198Z,98283.13
2023-05-12T03:31:38.114Z,98281.22
2023-05-12T03:32:40.690Z,98285.81
2023-05-12T03:33:42.618Z,98281.81
2023-05-12T03:34:44.524Z,98285.03
2023-05-12T03:35:46.438Z,98281.81
2023-05-12T03:36:48.246Z,98286.13
2023-05-12T03:37:50.076Z,98285.59
2023-05-12T03:38:51.907Z,98280.19
2023-05-12T03:39:56.088Z,98291.81
2023-05-12T03:41:08.399Z,98290.41
2023-05-12T03:42:10.715Z,98289.91
2023-05-12T03:43:12.992Z,98287.47
2023-05-12T03:44:14.959Z,98286.97
2023-05-12T03:45:17.128Z,98289.38
2023-05-12T03:46:19.166Z,98286.47
2023-05-12T03:47:21.189Z,98281.59
2023-05-12T03:48:23.494Z,98290.78
2023-05-12T03:49:25.343Z,98286.97
2023-05-12T03:50:27.312Z,98292.38
2023-05-12T03:51:29.178Z,98277.59
2023-05-12T03:52:31.044Z,98286.78
2023-05-12T03:53:32.934Z,98285.97
2023-05-12T03:54:37.153Z,98281.09
2023-05-12T03:55:39.931Z,98286.78
2023-05-12T03:56:41.818Z,98288.66
2023-05-12T03:57:44.082Z,98281.38
2023-05-12T03:58:49.358Z,98286.47
2023-05-12T03:59:51.166Z,98285.97
2023-05-12T04:00:56.386Z,98282.78
2023-05-12T04:01:59.106Z,98287.38
2023-05-12T04:03:01.258Z,98294.34
2023-05-12T04:04:03.672Z,98288.16
2023-05-12T04:05:08.128Z,98282.53
2023-05-12T04:06:10.588Z,98283.56
2023-05-12T04:07:12.467Z,98284.94
2023-05-12T04:08:14.409Z,98288.72
2023-05-12T04:09:16.705Z,98282.53
2023-05-12T04:10:18.832Z,98287.94
2023-05-12T04:11:21.015Z,98288.72
2023-05-12T04:12:23.458Z,98277.16
2023-05-12T04:13:26.358Z,98283.34
2023-05-12T04:14:38.957Z,98283.94
2023-05-12T04:15:44.542Z,98282.53
2023-05-12T04:16:46.521Z,98280.13
2023-05-12T04:17:48.680Z,98289.03
2023-05-12T04:18:50.984Z,98280.13
2023-05-12T04:19:53.496Z,98283.13
2023-05-12T04:20:56.165Z,98277.44
2023-05-12T04:21:58.438Z,98279.34
2023-05-12T04:23:00.326Z,98290.91
2023-05-12T04:24:02.534Z,98287.41
2023-05-12T04:25:04.825Z,98290.91
2023-05-12T04:26:07.032Z,98284.13
2023-05-12T04:27:09.013Z,98287.13
2023-05-12T04:28:12.322Z,98282.53
2023-05-12T04:29:14.346Z,98288.72
2023-05-12T04:30:16.712Z,98290.31
2023-05-12T04:31:18.889Z,98291.16
2023-05-12T04:32:20.844Z,98292.75
2023-05-12T04:33:22.790Z,98289.53
2023-05-12T04:34:24.573Z,98293.84
2023-05-12T04:35:26.568Z,98293.03
2023-05-12T04:36:28.446Z,98300.31
2023-05-12T04:37:30.351Z,98296.53
2023-05-12T04:38:32.176Z,98298.72
2023-05-12T04:39:34.133Z,98303.53
2023-05-12T04:40:35.989Z,98300.31
2023-05-12T04:41:37.914Z,98302.19
2023-05-12T04:42:39.810Z,98294.41
2023-05-12T04:44:46.733Z,98294.66
2023-05-12T04:45:51.570Z,98299.25
2023-05-12T04:46:56.279Z,98300.03
2023-05-12T04:47:58.325Z,98300.03
2023-05-12T04:49:00.300Z,98293.31
2023-05-12T04:50:02.742Z,98294.13
2023-05-12T04:51:04.988Z,98298.41
2023-05-12T04:52:07.230Z,98296.81
2023-05-12T04:53:11.240Z,98302.75
2023-05-12T04:54:13.628Z,98304.09
2023-05-12T04:55:15.748Z,98307.31
2023-05-12T04:56:17.699Z,98299.50
2023-05-12T04:57:19.656Z,98310.03
2023-05-12T04:58:21.461Z,98301.94
2023-05-12T04:59:23.571Z,98304.91
2023-05-12T05:00:25.774Z,98299.50
2023-05-12T05:01:28.088Z,98309.50
2023-05-12T05:02:30.146Z,98306.00
2023-05-12T05:03:32.158Z,98305.69
2023-05-12T05:04:34.405Z,98309.50
2023-05-12T05:05:36.267Z,98311.38
2023-05-12T05:06:38.622Z,98314.38
2023-05-12T05:07:40.769Z,98309.78
2023-05-12T05:08:42.899Z,98314.09
2023-05-12T05:09:45.001Z,98309.78
2023-05-12T05:10:47.063Z,98310.59
2023-05-12T05:11:48.999Z,98308.69
2023-05-12T05:12:50.898Z,98310.59
2023-05-12T05:13:52.795Z,98313.28
2023-05-12T05:14:54.746Z,98309.78
2023-05-12T05:15:57.041Z,98309.50
2023-05-12T05:17:00.069Z,98314.09
2023-05-12T05:18:02.346Z,98306.28
2023-05-12T05:19:06.598Z,98311.69
2023-05-12T05:20:12.736Z,98310.59
2023-05-12T05:21:17.230Z,98314.38
2023-05-12T05:22:19.312Z,98313.56
2023-05-12T05:23:21.285Z,98312.47
2023-05-12T05:24:23.145Z,98316.28
2023-05-12T05:25:26.469Z,98315.19
2023-05-12T05:26:28.579Z,98308.19
2023-05-12T05:27:30.522Z,98316.28
2023-05-12T05:28:32.497Z,98322.75
2023-05-12T05:29:34.334Z,98317.06
2023-05-12T05:30:36.507Z,98326.75
2023-05-12T05:31:38.875Z,98316.28
2023-05-12T05:32:41.216Z,98319.25
2023-05-12T05:33:44.871Z,98324.66
2023-05-12T05:34:47.014Z,98315.75
2023-05-12T05:35:49.150Z,98328.16
2023-05-12T05:36:51.281Z,98326.53
2023-05-12T05:37:54.784Z,98323.84
2023-05-12T05:38:56.646Z,98329.53
2023-05-12T05:39:58.535Z,98328.72
2023-05-12T05:41:00.610Z,98324.16
2023-05-12T05:42:02.583Z,98325.75
2023-05-12T05:43:04.961Z,98327.63
2023-05-12T05:44:07.104Z,98322.53
2023-05-12T05:45:09.817Z,98326.84
2023-05-12T05:46:12.206Z,98331.13
2023-05-12T05:47:14.447Z,98331.44
2023-05-12T05:48:16.455Z,98327.94
2023-05-12T05:49:18.606Z,98336.03
2023-05-12T05:50:20.573Z,98333.31
2023-05-12T05:51:22.504Z,98335.22
2023-05-12T05:52:24.476Z,98335.72
2023-05-12T05:53:26.337Z,98333.84
2023-05-12T05:54:28.263Z,98340.81
2023-05-12T05:55:30.261Z,98332.72
2023-05-12T05:56:33.324Z,98334.94
2023-05-12T05:57:35.163Z,98329.53
2023-05-12T05:58:37.578Z,98336.81
2023-05-12T05:59:39.428Z,98336.53
2023-05-12T06:00:43.622Z,98332.22
2023-05-12T06:01:45.672Z,98335.72
2023-05-12T06:02:47.812Z,98340.81
2023-05-12T06:03:49.952Z,98334.63
2023-05-12T06:04:52.426Z,98337.31
2023-05-12T06:05:54.532Z,98338.41
2023-05-12T06:06:56.375Z,98331.13
2023-05-12T06:07:58.266Z,98329.25
2023-05-12T06:09:00.264Z,98335.72
2023-05-12T06:10:02.266Z,98335.72
2023-05-12T06:11:04.486Z,98340.03
2023-05-12T06:12:06.953Z,98334.94
2023-05-12T06:13:08.921Z,98339.22
2023-05-12T06:14:11.931Z,98331.94
2023-05-12T06:15:14.312Z,98338.13
2023-05-12T06:16:16.567Z,98341.91
2023-05-12T06:17:18.624Z,98340.03
2023-05-12T06:18:23.497Z,98344.63
2023-05-12T06:19:25.456Z,98344.63
2023-05-12T06:20:27.491Z,98336.22
2023-05-12T06:21:29.479Z,98347.81
2023-05-12T06:22:32.035Z,98345.41
2023-05-12T06:23:33.990Z,98342.72
2023-05-12T06:24:35.894Z,98346.22
2023-05-12T06:25:38.293Z,98338.41
2023-05-12T06:26:40.513Z,98343.53
2023-05-12T06:27:42.324Z,98340.03
2023-05-12T06:28:44.261Z,98344.31
2023-05-12T06:29:46.195Z,98344.31
2023-05-12T06:30:48.088Z,98347.00
2023-05-12T06:31:49.998Z,98348.91
2023-05-12T06:32:52.966Z,98347.00
2023-05-12T06:33:54.991Z,98346.22
2023-05-12T06:34:56.828Z,98346.22
2023-05-12T06:35:58.835Z,98347.00
2023-05-12T06:37:01.149Z,98345.41
2023-05-12T06:38:03.012Z,98348.91
2023-05-12T06:39:05.278Z,98348.63
2023-05-12T06:40:07.898Z,98347.00
2023-05-12T06:41:09.823Z,98350.22
2023-05-12T06:42:11.749Z,98350.22
2023-05-12T06:43:13.588Z,98352.63
2023-05-12T06:44:15.637Z,98355.31
2023-05-12T06:45:18.136Z,98353.22
2023-05-12T06:46:20.633Z,98351.03
2023-05-12T06:47:22.747Z,98354.22
2023-05-12T06:48:25.223Z,98358.00
2023-05-12T06:49:27.246Z,98352.63
2023-05-12T06:50:29.101Z,98357.72
2023-05-12T06:51:31.252Z,98357.22
2023-05-12T06:52:33.184Z,98353.41
2023-05-12T06:53:38.035Z,98354.50
2023-05-12T06:54:40.006Z,98347.22
2023-05-12T06:55:44.145Z,98353.16
2023-05-12T06:56:46.304Z,98359.34
2023-05-12T06:57:48.268Z,98355.84
2023-05-12T06:58:50.402Z,98355.56
2023-05-12T06:59:52.394Z,98352.06
2023-05-12T07:00:54.520Z,98352.88
2023-05-12T07:01:56.816Z,98358.25
2023-05-12T07:02:59.060Z,98355.56
2023-05-12T07:04:01.139Z,98354.47
2023-05-12T07:05:03.298Z,98358.75
2023-05-12T07:06:05.268Z,98350.66
2023-05-12T07:07:07.198Z,98357.97
2023-05-12T07:08:09.217Z,98354.47
2023-05-12T07:09:11.155Z,98349.88
2023-05-12T07:10:13.240Z,98351.47
2023-05-12T07:11:20.172Z,98347.19
2023-05-12T07:12:22.224Z,98354.69
2023-05-12T07:13:24.176Z,98360.06
2023-05-12T07:14:26.598Z,98349.28
2023-05-12T07:15:30.585Z,98354.38
2023-05-12T07:16:35.520Z,98354.38
2023-05-12T07:17:38.128Z,98352.50
2023-05-12T07:18:40.114Z,98352.50
2023-05-12T07:19:43.578Z,98351.41
2023-05-12T07:20:46.557Z,98353.28
2023-05-12T07:21:48.899Z,98362.19
2023-05-12T07:22:52.606Z,98347.59
2023-05-12T07:23:54.474Z,98358.13
2023-05-12T07:24:56.360Z,98352.72
2023-05-12T07:25:58.514Z,98353.00
2023-05-12T07:27:00.827Z,98358.91
2023-05-12T07:28:03.860Z,98348.94
2023-05-12T07:29:06.933Z,98355.94
2023-05-12T07:30:09.902Z,98351.63
2023-05-12T07:31:11.920Z,98350.53
2023-05-12T07:32:14.347Z,98350.53
2023-05-12T07:33:16.190Z,98358.34
2023-05-12T07:34:18.513Z,98352.13
2023-05-12T07:35:20.650Z,98350.25
2023-05-12T07:36:23.125Z,98353.78
2023-05-12T07:37:25.549Z,98349.97
2023-05-12T07:38:27.750Z,98344.59
2023-05-12T07:39:32.196Z,98356.19
2023-05-12T07:40:34.521Z,98352.09
2023-05-12T07:41:36.406Z,98348.28
2023-05-12T07:42:38.466Z,98349.38
2023-05-12T07:43:40.350Z,98343.72
2023-05-12T07:44:42.453Z,98343.72
2023-05-12T07:45:45.529Z,98339.94
2023-05-12T07:46:47.706Z,98342.34
2023-05-12T07:47:51.048Z,98345.03
2023-05-12T07:48:52.984Z,98348.53
2023-05-12T07:49:55.405Z,98346.63
2023-05-12T07:50:57.519Z,98339.06
2023-05-12T07:51:59.487Z,98347.66
2023-05-12T07:53:01.438Z,98344.16
2023-05-12T07:54:03.517Z,98341.75
2023-05-12T07:55:05.769Z,98346.84
2023-05-12T07:56:08.446Z,98341.97
2023-05-12T07:57:11.186Z,98331.97
2023-05-12T07:58:13.442Z,98348.94
2023-05-12T07:59:15.884Z,98336.25
2023-05-12T08:00:18.770Z,98345.19
2023-05-12T08:01:20.660Z,98337.91
2023-05-12T08:02:22.725Z,98346.25
2023-05-12T08:03:24.715Z,98342.50
2023-05-12T08:04:26.820Z,98338.69
2023-05-12T08:05:29.127Z,98346.00
2023-05-12T08:06:31.181Z,98338.09
2023-05-12T08:07:33.609Z,98345.69
2023-05-12T08:08:36.579Z,98341.09
2023-05-12T08:09:38.468Z,98348.09
2023-05-12T08:10:41.041Z,98348.91
2023-05-12T08:11:46.580Z,98345.09
2023-05-12T08:12:49.678Z,98338.91
2023-05-12T08:13:51.687Z,98350.50
2023-05-12T08:14:54.000Z,98345.91
2023-05-12T08:15:56.206Z,98347.78
2023-05-12T08:16:58.226Z,98340.50
2023-05-12T08:18:00.267Z,98347.50
2023-05-12T08:19:02.265Z,98345.91
2023-05-12T08:20:05.297Z,98345.09
2023-05-12T08:21:07.863Z,98348.31
2023-05-12T08:22:09.895Z,98347.50
2023-05-12T08:23:11.917Z,98344.81
2023-05-12T08:24:14.275Z,98341.81
2023-05-12T08:25:16.529Z,98342.59
2023-05-12T08:26:18.492Z,98344.50
2023-05-12T08:27:21.082Z,98344.50
2023-05-12T08:28:22.935Z,98350.69
2023-05-12T08:29:24.864Z,98349.09
2023-05-12T08:30:27.416Z,98341.00
2023-05-12T08:31:29.390Z,98349.91
2023-05-12T08:32:32.079Z,98353.41
2023-05-12T08:33:36.145Z,98338.81
2023-05-12T08:34:38.230Z,98346.09
2023-05-12T08:35:40.690Z,98345.84
2023-05-12T08:36:43.118Z,98347.44
2023-05-12T08:37:45.707Z,98346.63
2023-05-12T08:38:47.816Z,98343.66
2023-05-12T08:39:49.766Z,98351.75
2023-05-12T08:41:15.530Z,98344.16
2023-05-12T08:42:49.394Z,98345.16
2023-05-12T08:43:52.916Z,98349.53
2023-05-12T08:44:55.801Z,98349.03
2023-05-12T08:45:59.523Z,98348.75
2023-05-12T08:47:04.320Z,98346.03
2023-05-12T08:48:13.606Z,98353.03
2023-05-12T08:49:21.237Z,98348.75
2023-05-12T08:50:25.722Z,98346.84
2023-05-12T08:51:32.130Z,98348.44
2023-05-12T08:52:35.968Z,98344.94
2023-05-12T08:53:40.273Z,98345.44
2023-05-12T08:54:55.093Z,98349.25
2023-05-12T08:57:09.444Z,98355.94
2023-05-12T08:57:29.325Z,98354.06
2023-05-12T08:58:40.939Z,98358.16
2023-05-12T08:59:44.571Z,98356.75
2023-05-12T09:00:47.022Z,98360.53
2023-05-12T09:01:50.943Z,98359.75
2023-05-12T09:02:56.153Z,98360.53
2023-05-12T09:03:58.086Z,98364.03
2023-05-12T09:05:00.150Z,98361.34
2023-05-12T09:06:03.725Z,98365.94
2023-05-12T09:07:07.096Z,98360.53
2023-05-12T09:08:11.081Z,98361.03
2023-05-12T09:09:16.152Z,98361.34
2023-05-12T09:10:34.164Z,98367.78
2023-05-12T09:11:37.254Z,98370.78
2023-05-12T09:12:39.958Z,98370.78
2023-05-12T09:14:06.534Z,98371.78
2023-05-12T09:15:14.890Z,98370.47
2023-05-12T09:16:24.424Z,98377.22
2023-05-12T09:17:26.420Z,98374.53
2023-05-12T09:18:53.996Z,98377.19
2023-05-12T09:19:56.294Z,98380.72
2023-05-12T09:20:58.566Z,98374.53
2023-05-12T09:22:01.518Z,98378.03
2023-05-12T09:23:22.993Z,98371.78
2023-05-12T09:24:39.970Z,98369.09
2023-05-12T09:25:42.166Z,98372.88
2023-05-12T09:26:56.060Z,98373.38
2023-05-12T09:27:58.273Z,98379.38
2023-05-12T09:29:08.521Z,98372.88
2023-05-12T09:30:11.331Z,98379.38
2023-05-12T09:31:22.775Z,98377.19
2023-05-12T09:32:33.239Z,98374.19
2023-05-12T09:33:36.802Z,98374.47
2023-05-12T09:34:41.673Z,98366.38
2023-05-12T09:35:46.068Z,98369.59
2023-05-12T09:37:01.337Z,98370.38
2023-05-12T09:38:11.619Z,98372.78
2023-05-12T09:39:13.593Z,98370.38
2023-05-12T09:40:16.487Z,98373.88
2023-05-12T09:41:24.160Z,98371.97
2023-05-12T09:42:30.641Z,98373.59
2023-05-12T09:43:32.834Z,98367.38
2023-05-12T09:44:35.304Z,98374.69
2023-05-12T09:45:39.161Z,98373.06
2023-05-12T09:46:41.145Z,98371.19
2023-05-12T09:47:43.789Z,98374.69
2023-05-12T09:48:48.374Z,98372.78
2023-05-12T09:49:53.343Z,98375.19
2023-05-12T09:50:55.248Z,98377.63
2023-05-12T09:51:59.052Z,98370.59
2023-05-12T09:53:01.616Z,98375.97
2023-05-12T09:54:05.743Z,98370.59
2023-05-12T09:55:14.029Z,98369.22
2023-05-12T09:56:18.335Z,98370.81
2023-05-12T09:57:23.089Z,98370.31
2023-05-12T09:58:28.176Z,98373.81
2023-05-12T09:59:36.080Z,98381.31
2023-05-12T10:01:02.351Z,98368.13
2023-05-12T10:02:08.830Z,98376.72
2023-05-12T10:03:17.787Z,98385.63
2023-05-12T10:04:21.195Z,98374.03
2023-05-12T10:05:24.454Z,98378.63
2023-05-12T10:06:37.810Z,98374.03
2023-05-12T10:07:40.742Z,98375.63
2023-05-12T10:08:51.375Z,98376.44
2023-05-12T10:09:59.448Z,98378.03
2023-05-12T10:11:04.616Z,98376.44
2023-05-12T10:12:06.862Z,98378.81
2023-05-12T10:13:14.185Z,98368.03
2023-05-12T10:14:17.372Z,98375.03
2023-05-12T10:15:21.630Z,98364.22
2023-05-12T10:16:24.711Z,98372.03
2023-05-12T10:17:28.370Z,98366.63
2023-05-12T10:18:33.646Z,98374.50
2023-05-12T10:19:36.233Z,98371.50
2023-05-12T10:20:38.343Z,98369.09
2023-05-12T10:21:46.133Z,98368.78
2023-05-12T10:22:50.213Z,98365.81
2023-05-12T10:23:54.578Z,98367.41
2023-05-12T10:24:57.615Z,98362.31
2023-05-12T10:26:02.503Z,98371.41
2023-05-12T10:27:06.326Z,98367.09
2023-05-12T10:28:10.043Z,98370.91
2023-05-12T10:29:13.757Z,98369.00
2023-05-12T10:30:16.609Z,98371.91
2023-05-12T10:31:20.644Z,98370.84
2023-05-12T10:32:22.777Z,98369.72
2023-05-12T10:33:26.349Z,98367.03
2023-05-12T10:34:37.039Z,98372.34
2023-05-12T10:35:42.958Z,98370.44
2023-05-12T10:36:51.032Z,98371.72
2023-05-12T10:37:52.993Z,98368.53
2023-05-12T10:38:56.521Z,98366.13
2023-05-12T10:40:01.256Z,98368.22
2023-05-12T10:41:06.864Z,98371.72
2023-05-12T10:42:10.133Z,98368.22
2023-05-12T10:43:24.145Z,98367.66
2023-05-12T10:44:29.655Z,98376.03
2023-05-12T10:45:37.576Z,98366.88
2023-05-12T10:46:39.535Z,98368.72
2023-05-12T10:47:44.357Z,98368.72
2023-05-12T10:49:15.696Z,98366.75
2023-05-12T10:50:30.393Z,98373.25
2023-05-12T10:51:35.862Z,98361.16
2023-05-12T10:52:37.648Z,98370.06
2023-05-12T10:53:49.336Z,98366.56
2023-05-12T10:55:03.031Z,98370.56
2023-05-12T10:56:06.857Z,98367.66
2023-05-12T10:57:18.374Z,98373.56
2023-05-12T10:58:21.621Z,98366.88
2023-05-12T10:59:25.597Z,98369.56
2023-05-12T11:00:29.085Z,98366.56
2023-05-12T11:01:31.744Z,98369.25
2023-05-12T11:02:36.692Z,98368.47
2023-05-12T11:03:41.021Z,98371.97
2023-05-12T11:04:50.395Z,98374.38
2023-05-12T11:06:04.920Z,98379.47
2023-05-12T11:07:12.203Z,98368.47
2023-05-12T11:08:17.652Z,98363.06
2023-05-12T11:09:21.799Z,98370.63
2023-05-12T11:10:24.452Z,98366.88
2023-05-12T11:11:29.630Z,98359.03
2023-05-12T11:12:35.731Z,98373.63
2023-05-12T11:13:38.143Z,98366.94
2023-05-12T11:14:44.645Z,98366.44
2023-05-12T11:15:47.632Z,98366.50
2023-05-12T11:16:49.881Z,98369.00
2023-05-12T11:17:52.456Z,98368.28
2023-05-12T11:19:06.909Z,98365.84
2023-05-12T11:20:12.636Z,98366.72
2023-05-12T11:21:14.806Z,98363.81
2023-05-12T11:22:22.654Z,98376.22
2023-05-12T11:23:29.393Z,98374.09
2023-05-12T11:24:31.399Z,98374.38
2023-05-12T11:25:34.070Z,98376.28
2023-05-12T11:26:36.040Z,98374.38
2023-05-12T11:27:44.716Z,98382.72
2023-05-12T11:28:46.744Z,98375.72
2023-05-12T11:30:11.108Z,98370.53
2023-05-12T11:31:22.818Z,98378.63
2023-05-12T11:32:25.161Z,98381.63
2023-05-12T11:33:27.062Z,98375.91
2023-05-12T11:34:29.022Z,98382.13
2023-05-12T11:35:32.486Z,98373.22
2023-05-12T11:36:39.700Z,98375.31
2023-05-12T11:37:43.622Z,98375.63
2023-05-12T11:38:51.897Z,98382.03
2023-05-12T11:39:54.065Z,98374.22
2023-05-12T11:40:55.997Z,98379.63
2023-05-12T11:42:12.880Z,98373.13
2023-05-12T11:43:22.353Z,98378.50
2023-05-12T11:44:25.652Z,98379.88
2023-05-12T11:45:30.744Z,98387.69
2023-05-12T11:46:32.743Z,98384.19
2023-05-12T11:47:34.761Z,98382.50
2023-05-12T11:48:36.612Z,98383.91
2023-05-12T11:49:54.547Z,98379.50
2023-05-12T11:50:56.539Z,98380.91
2023-05-12T11:52:01.583Z,98385.50
2023-05-12T11:53:03.768Z,98380.91
2023-05-12T11:54:07.835Z,98388.69
2023-05-12T11:55:10.233Z,98383.28
2023-05-12T11:56:20.663Z,98389.50
2023-05-12T11:57:32.373Z,98387.28
2023-05-12T11:58:35.628Z,98386.50
2023-05-12T11:59:37.943Z,98388.69
2023-05-12T12:00:39.883Z,98388.19
2023-05-12T12:01:46.748Z,98395.19
2023-05-12T12:02:48.815Z,98391.69
2023-05-12T12:03:53.971Z,98401.38
2023-05-12T12:04:56.797Z,98396.28
2023-05-12T12:06:02.795Z,98392.50
2023-05-12T12:07:09.609Z,98392.50
2023-05-12T12:08:16.341Z,98400.28
2023-05-12T12:09:18.291Z,98399.50
2023-05-12T12:10:20.906Z,98396.28
2023-05-12T12:11:27.067Z,98399.50
2023-05-12T12:12:28.924Z,98397.59
2023-05-12T12:13:31.207Z,98402.50
2023-05-12T12:14:35.773Z,98397.88
2023-05-12T12:15:38.178Z,98400.28
2023-05-12T12:16:40.391Z,98400.28
2023-05-12T12:17:42.573Z,98405.69
2023-05-12T12:18:44.580Z,98404.09
2023-05-12T12:19:47.854Z,98414.59
2023-05-12T12:20:49.886Z,98410.28
2023-05-12T12:21:54.460Z,98415.09
2023-05-12T12:22:56.399Z,98413.50
2023-05-12T12:23:58.911Z,98420.22
2023-05-12T12:25:02.332Z,98419.69
2023-05-12T12:26:04.447Z,98420.50
2023-05-12T12:27:06.728Z,98424.28
2023-05-12T12:28:08.751Z,98418.88